Terminal Aerodrome Forecast
Issued by NWS Jackson, MS

Home | Current Version | Previous Version | Text Only | Print | Product List | Glossary On
Versions: 1 2 3 4 5 6 7 8 9 10 11 12 13
000
FTUS44 KMEG 170500
TAFTUP
TAF
KTUP 170530Z 1706/1806 04005KT P6SM BKN120
      TEMPO 1708/1712 4SM BR
     FM171300 02005KT P6SM BKN035 BKN150
     FM180000 03002KT P6SM SCT035 BKN150=

USA.gov is the U.S. government's official web portal to all federal, state and local government web resources and services.